sensor_id;sensor_type;location;lat;lon;timestamp;P1;durP1;ratioP1;P2;durP2;ratioP2
47429;SDS011;33181;49.246;7.372;2023-02-01T00:00:20;10.50;;;7.20;;
47429;SDS011;33181;49.246;7.372;2023-02-01T00:02:46;11.00;;;7.03;;
47429;SDS011;33181;49.246;7.372;2023-02-01T00:05:12;13.80;;;7.43;;
47429;SDS011;33181;49.246;7.372;2023-02-01T00:07:38;13.50;;;7.00;;
47429;SDS011;33181;49.246;7.372;2023-02-01T00:10:05;12.50;;;7.70;;
47429;SDS011;33181;49.246;7.372;2023-02-01T00:12:34;13.97;;;8.30;;
47429;SDS011;33181;49.246;7.372;2023-02-01T00:15:00;13.47;;;8.43;;
47429;SDS011;33181;49.246;7.372;2023-02-01T00:17:26;14.73;;;8.77;;
47429;SDS011;33181;49.246;7.372;2023-02-01T00:19:52;15.30;;;8.73;;
47429;SDS011;33181;49.246;7.372;2023-02-01T00:22:18;18.40;;;9.30;;
47429;SDS011;33181;49.246;7.372;2023-02-01T00:24:44;12.50;;;8.20;;
47429;SDS011;33181;49.246;7.372;2023-02-01T00:27:10;15.17;;;8.20;;
47429;SDS011;33181;49.246;7.372;2023-02-01T00:29:43;13.20;;;8.20;;
47429;SDS011;33181;49.246;7.372;2023-02-01T00:32:10;12.70;;;7.83;;
47429;SDS011;33181;49.246;7.372;2023-02-01T00:34:35;12.30;;;7.57;;
47429;SDS011;33181;49.246;7.372;2023-02-01T00:37:01;17.00;;;8.43;;
47429;SDS011;33181;49.246;7.372;2023-02-01T00:39:27;13.33;;;7.87;;
47429;SDS011;33181;49.246;7.372;2023-02-01T00:41:53;12.67;;;7.27;;
47429;SDS011;33181;49.246;7.372;2023-02-01T00:44:19;14.73;;;7.30;;
47429;SDS011;33181;49.246;7.372;2023-02-01T00:46:44;12.13;;;7.00;;
47429;SDS011;33181;49.246;7.372;2023-02-01T00:49:12;10.77;;;6.80;;
47429;SDS011;33181;49.246;7.372;2023-02-01T00:51:38;11.07;;;7.50;;
47429;SDS011;33181;49.246;7.372;2023-02-01T00:54:04;11.73;;;7.30;;
47429;SDS011;33181;49.246;7.372;2023-02-01T00:56:29;10.50;;;7.00;;
47429;SDS011;33181;49.246;7.372;2023-02-01T00:58:56;12.53;;;7.43;;
47429;SDS011;33181;49.246;7.372;2023-02-01T01:01:23;12.70;;;7.90;;
47429;SDS011;33181;49.246;7.372;2023-02-01T01:03:53;14.00;;;7.77;;
47429;SDS011;33181;49.246;7.372;2023-02-01T01:06:25;14.27;;;7.53;;
47429;SDS011;33181;49.246;7.372;2023-02-01T01:08:57;12.13;;;7.97;;
47429;SDS011;33181;49.246;7.372;2023-02-01T01:11:26;13.30;;;8.20;;
47429;SDS011;33181;49.246;7.372;2023-02-01T01:13:56;10.37;;;7.43;;
47429;SDS011;33181;49.246;7.372;2023-02-01T01:16:24;15.30;;;7.63;;
47429;SDS011;33181;49.246;7.372;2023-02-01T01:18:51;13.40;;;7.83;;
47429;SDS011;33181;49.246;7.372;2023-02-01T01:21:18;12.73;;;8.40;;
47429;SDS011;33181;49.246;7.372;2023-02-01T01:23:44;14.60;;;9.17;;
47429;SDS011;33181;49.246;7.372;2023-02-01T01:26:16;14.60;;;8.50;;
47429;SDS011;33181;49.246;7.372;2023-02-01T01:28:47;18.53;;;9.17;;
47429;SDS011;33181;49.246;7.372;2023-02-01T01:31:14;12.73;;;8.87;;
47429;SDS011;33181;49.246;7.372;2023-02-01T01:33:41;15.33;;;8.47;;
47429;SDS011;33181;49.246;7.372;2023-02-01T01:36:09;14.67;;;9.00;;
47429;SDS011;33181;49.246;7.372;2023-02-01T01:38:36;16.50;;;8.63;;
47429;SDS011;33181;49.246;7.372;2023-02-01T01:41:04;16.00;;;8.90;;
47429;SDS011;33181;49.246;7.372;2023-02-01T01:46:24;15.63;;;8.97;;
47429;SDS011;33181;49.246;7.372;2023-02-01T01:51:40;16.70;;;9.40;;
47429;SDS011;33181;49.246;7.372;2023-02-01T01:54:21;19.20;;;9.63;;
47429;SDS011;33181;49.246;7.372;2023-02-01T01:57:04;17.73;;;10.13;;
47429;SDS011;33181;49.246;7.372;2023-02-01T01:59:36;18.77;;;9.50;;
47429;SDS011;33181;49.246;7.372;2023-02-01T02:02:05;18.10;;;10.30;;
47429;SDS011;33181;49.246;7.372;2023-02-01T02:04:31;19.00;;;10.23;;
47429;SDS011;33181;49.246;7.372;2023-02-01T02:07:01;21.93;;;10.90;;
47429;SDS011;33181;49.246;7.372;2023-02-01T02:09:44;18.90;;;10.93;;
47429;SDS011;33181;49.246;7.372;2023-02-01T02:12:09;24.43;;;11.20;;
47429;SDS011;33181;49.246;7.372;2023-02-01T02:14:35;23.37;;;11.40;;
47429;SDS011;33181;49.246;7.372;2023-02-01T02:20:11;22.83;;;12.43;;
47429;SDS011;33181;49.246;7.372;2023-02-01T02:30:08;26.33;;;12.10;;
47429;SDS011;33181;49.246;7.372;2023-02-01T02:32:47;24.73;;;12.67;;
47429;SDS011;33181;49.246;7.372;2023-02-01T02:36:00;21.03;;;11.90;;
47429;SDS011;33181;49.246;7.372;2023-02-01T02:38:44;20.93;;;12.03;;
47429;SDS011;33181;49.246;7.372;2023-02-01T02:51:20;22.73;;;12.97;;
47429;SDS011;33181;49.246;7.372;2023-02-01T02:54:18;28.00;;;11.97;;
47429;SDS011;33181;49.246;7.372;2023-02-01T02:57:16;33.50;;;13.00;;
47429;SDS011;33181;49.246;7.372;2023-02-01T03:00:15;20.50;;;12.03;;
47429;SDS011;33181;49.246;7.372;2023-02-01T03:03:03;22.97;;;11.27;;
47429;SDS011;33181;49.246;7.372;2023-02-01T03:05:51;22.93;;;12.53;;
47429;SDS011;33181;49.246;7.372;2023-02-01T03:08:21;20.67;;;13.10;;
47429;SDS011;33181;49.246;7.372;2023-02-01T03:13:41;26.63;;;12.53;;
47429;SDS011;33181;49.246;7.372;2023-02-01T03:16:36;28.70;;;11.83;;
47429;SDS011;33181;49.246;7.372;2023-02-01T03:19:21;20.97;;;11.87;;
47429;SDS011;33181;49.246;7.372;2023-02-01T03:22:01;18.90;;;10.83;;
47429;SDS011;33181;49.246;7.372;2023-02-01T03:24:40;23.83;;;11.40;;
47429;SDS011;33181;49.246;7.372;2023-02-01T03:27:13;30.40;;;12.03;;
47429;SDS011;33181;49.246;7.372;2023-02-01T03:30:21;22.50;;;11.87;;
47429;SDS011;33181;49.246;7.372;2023-02-01T03:32:56;26.07;;;12.37;;
47429;SDS011;33181;49.246;7.372;2023-02-01T03:38:08;23.00;;;12.30;;
47429;SDS011;33181;49.246;7.372;2023-02-01T03:47:08;20.57;;;10.80;;
47429;SDS011;33181;49.246;7.372;2023-02-01T03:52:32;21.73;;;11.07;;
47429;SDS011;33181;49.246;7.372;2023-02-01T03:55:03;19.60;;;10.93;;
47429;SDS011;33181;49.246;7.372;2023-02-01T03:57:32;19.00;;;10.47;;
47429;SDS011;33181;49.246;7.372;2023-02-01T04:00:04;19.03;;;10.20;;
47429;SDS011;33181;49.246;7.372;2023-02-01T04:02:50;22.33;;;11.00;;
47429;SDS011;33181;49.246;7.372;2023-02-01T04:05:17;18.07;;;11.10;;
47429;SDS011;33181;49.246;7.372;2023-02-01T04:07:44;19.17;;;11.20;;
47429;SDS011;33181;49.246;7.372;2023-02-01T04:10:10;20.70;;;10.70;;
47429;SDS011;33181;49.246;7.372;2023-02-01T04:12:37;26.97;;;11.80;;
47429;SDS011;33181;49.246;7.372;2023-02-01T04:15:03;23.60;;;12.60;;
47429;SDS011;33181;49.246;7.372;2023-02-01T04:17:29;25.93;;;11.90;;
47429;SDS011;33181;49.246;7.372;2023-02-01T04:19:55;23.83;;;13.23;;
47429;SDS011;33181;49.246;7.372;2023-02-01T04:22:22;28.03;;;12.63;;
47429;SDS011;33181;49.246;7.372;2023-02-01T04:24:47;24.50;;;12.00;;
47429;SDS011;33181;49.246;7.372;2023-02-01T04:27:13;18.60;;;12.00;;
47429;SDS011;33181;49.246;7.372;2023-02-01T04:29:39;23.10;;;11.93;;
47429;SDS011;33181;49.246;7.372;2023-02-01T04:32:06;21.47;;;12.50;;
47429;SDS011;33181;49.246;7.372;2023-02-01T04:34:32;25.47;;;12.57;;
47429;SDS011;33181;49.246;7.372;2023-02-01T04:36:58;24.67;;;11.97;;
47429;SDS011;33181;49.246;7.372;2023-02-01T04:39:24;22.50;;;12.50;;
47429;SDS011;33181;49.246;7.372;2023-02-01T04:41:49;24.57;;;11.97;;
47429;SDS011;33181;49.246;7.372;2023-02-01T04:44:16;24.33;;;11.63;;
47429;SDS011;33181;49.246;7.372;2023-02-01T04:46:45;25.10;;;12.27;;
47429;SDS011;33181;49.246;7.372;2023-02-01T04:49:12;24.93;;;12.17;;
47429;SDS011;33181;49.246;7.372;2023-02-01T04:51:39;22.53;;;12.60;;
47429;SDS011;33181;49.246;7.372;2023-02-01T04:54:05;27.63;;;11.70;;
47429;SDS011;33181;49.246;7.372;2023-02-01T04:56:31;26.77;;;11.97;;
47429;SDS011;33181;49.246;7.372;2023-02-01T04:58:57;20.03;;;11.77;;
47429;SDS011;33181;49.246;7.372;2023-02-01T05:01:25;17.53;;;10.77;;
47429;SDS011;33181;49.246;7.372;2023-02-01T05:03:50;21.00;;;10.57;;
47429;SDS011;33181;49.246;7.372;2023-02-01T05:06:16;23.90;;;10.70;;
47429;SDS011;33181;49.246;7.372;2023-02-01T05:08:42;23.33;;;11.43;;
47429;SDS011;33181;49.246;7.372;2023-02-01T05:11:08;21.13;;;11.57;;
47429;SDS011;33181;49.246;7.372;2023-02-01T05:13:54;23.20;;;11.63;;
47429;SDS011;33181;49.246;7.372;2023-02-01T05:16:19;21.07;;;12.13;;
47429;SDS011;33181;49.246;7.372;2023-02-01T05:18:45;21.37;;;10.97;;
47429;SDS011;33181;49.246;7.372;2023-02-01T05:21:11;25.40;;;11.73;;
47429;SDS011;33181;49.246;7.372;2023-02-01T05:23:37;21.87;;;11.40;;
47429;SDS011;33181;49.246;7.372;2023-02-01T05:26:23;23.23;;;11.90;;
47429;SDS011;33181;49.246;7.372;2023-02-01T05:28:49;18.50;;;11.83;;
47429;SDS011;33181;49.246;7.372;2023-02-01T05:31:15;27.80;;;11.80;;
47429;SDS011;33181;49.246;7.372;2023-02-01T05:33:41;24.73;;;11.17;;
47429;SDS011;33181;49.246;7.372;2023-02-01T05:36:07;28.40;;;12.30;;
47429;SDS011;33181;49.246;7.372;2023-02-01T05:38:33;17.70;;;11.20;;
47429;SDS011;33181;49.246;7.372;2023-02-01T05:40:58;24.00;;;11.57;;
47429;SDS011;33181;49.246;7.372;2023-02-01T05:43:24;20.80;;;10.90;;
47429;SDS011;33181;49.246;7.372;2023-02-01T05:45:51;23.20;;;12.13;;
47429;SDS011;33181;49.246;7.372;2023-02-01T05:48:19;19.87;;;10.60;;
47429;SDS011;33181;49.246;7.372;2023-02-01T05:50:45;21.43;;;10.30;;
47429;SDS011;33181;49.246;7.372;2023-02-01T05:53:11;21.33;;;10.87;;
47429;SDS011;33181;49.246;7.372;2023-02-01T05:55:38;26.80;;;10.60;;
47429;SDS011;33181;49.246;7.372;2023-02-01T05:58:04;24.20;;;10.40;;
47429;SDS011;33181;49.246;7.372;2023-02-01T06:00:30;25.63;;;10.53;;
47429;SDS011;33181;49.246;7.372;2023-02-01T06:02:56;25.57;;;10.90;;
47429;SDS011;33181;49.246;7.372;2023-02-01T06:05:22;19.93;;;10.23;;
47429;SDS011;33181;49.246;7.372;2023-02-01T06:07:48;23.20;;;9.70;;
47429;SDS011;33181;49.246;7.372;2023-02-01T06:10:15;21.90;;;10.07;;
47429;SDS011;33181;49.246;7.372;2023-02-01T06:12:42;22.03;;;8.90;;
47429;SDS011;33181;49.246;7.372;2023-02-01T06:15:09;19.17;;;8.57;;
47429;SDS011;33181;49.246;7.372;2023-02-01T06:17:36;19.50;;;7.50;;
47429;SDS011;33181;49.246;7.372;2023-02-01T06:20:03;19.37;;;9.60;;
47429;SDS011;33181;49.246;7.372;2023-02-01T06:22:31;18.10;;;8.00;;
47429;SDS011;33181;49.246;7.372;2023-02-01T06:24:57;14.50;;;7.30;;
47429;SDS011;33181;49.246;7.372;2023-02-01T06:27:24;16.80;;;9.30;;
47429;SDS011;33181;49.246;7.372;2023-02-01T06:29:50;16.57;;;7.50;;
47429;SDS011;33181;49.246;7.372;2023-02-01T06:32:16;15.90;;;8.13;;
47429;SDS011;33181;49.246;7.372;2023-02-01T06:34:42;14.03;;;7.67;;
47429;SDS011;33181;49.246;7.372;2023-02-01T06:37:08;15.43;;;8.27;;
47429;SDS011;33181;49.246;7.372;2023-02-01T06:39:36;18.17;;;8.50;;
47429;SDS011;33181;49.246;7.372;2023-02-01T06:42:02;21.63;;;8.57;;
47429;SDS011;33181;49.246;7.372;2023-02-01T06:44:28;17.33;;;8.87;;
47429;SDS011;33181;49.246;7.372;2023-02-01T06:46:54;28.73;;;10.00;;
47429;SDS011;33181;49.246;7.372;2023-02-01T06:49:20;20.63;;;10.07;;
47429;SDS011;33181;49.246;7.372;2023-02-01T06:51:46;22.27;;;9.80;;
47429;SDS011;33181;49.246;7.372;2023-02-01T06:54:12;22.20;;;10.70;;
47429;SDS011;33181;49.246;7.372;2023-02-01T06:56:38;25.00;;;10.17;;
47429;SDS011;33181;49.246;7.372;2023-02-01T06:59:04;21.03;;;10.43;;
47429;SDS011;33181;49.246;7.372;2023-02-01T07:01:31;24.80;;;10.27;;
47429;SDS011;33181;49.246;7.372;2023-02-01T07:03:57;25.10;;;10.93;;
47429;SDS011;33181;49.246;7.372;2023-02-01T07:06:23;21.93;;;10.37;;
47429;SDS011;33181;49.246;7.372;2023-02-01T07:08:49;21.93;;;10.50;;
47429;SDS011;33181;49.246;7.372;2023-02-01T07:11:15;27.80;;;9.80;;
47429;SDS011;33181;49.246;7.372;2023-02-01T07:13:44;19.40;;;9.17;;
47429;SDS011;33181;49.246;7.372;2023-02-01T07:16:11;21.90;;;9.80;;
47429;SDS011;33181;49.246;7.372;2023-02-01T07:18:39;28.03;;;10.43;;
47429;SDS011;33181;49.246;7.372;2023-02-01T07:21:05;20.77;;;9.60;;
47429;SDS011;33181;49.246;7.372;2023-02-01T07:23:32;29.17;;;10.00;;
47429;SDS011;33181;49.246;7.372;2023-02-01T07:26:02;18.30;;;8.70;;
47429;SDS011;33181;49.246;7.372;2023-02-01T07:28:31;18.23;;;8.77;;
47429;SDS011;33181;49.246;7.372;2023-02-01T07:31:03;24.50;;;9.60;;
47429;SDS011;33181;49.246;7.372;2023-02-01T07:33:38;15.03;;;7.90;;
47429;SDS011;33181;49.246;7.372;2023-02-01T07:36:04;21.33;;;8.87;;
47429;SDS011;33181;49.246;7.372;2023-02-01T07:38:33;25.53;;;9.17;;
47429;SDS011;33181;49.246;7.372;2023-02-01T07:40:59;23.50;;;8.80;;
47429;SDS011;33181;49.246;7.372;2023-02-01T07:43:27;18.50;;;8.43;;
47429;SDS011;33181;49.246;7.372;2023-02-01T07:45:54;22.40;;;8.80;;
47429;SDS011;33181;49.246;7.372;2023-02-01T07:48:21;16.83;;;8.00;;
47429;SDS011;33181;49.246;7.372;2023-02-01T07:50:56;18.60;;;8.30;;
47429;SDS011;33181;49.246;7.372;2023-02-01T07:53:28;20.90;;;8.73;;
47429;SDS011;33181;49.246;7.372;2023-02-01T07:55:55;24.80;;;8.17;;
47429;SDS011;33181;49.246;7.372;2023-02-01T07:58:22;21.17;;;8.73;;
47429;SDS011;33181;49.246;7.372;2023-02-01T08:00:49;25.43;;;8.00;;
47429;SDS011;33181;49.246;7.372;2023-02-01T08:03:33;16.20;;;8.03;;
47429;SDS011;33181;49.246;7.372;2023-02-01T08:06:01;16.40;;;7.90;;
47429;SDS011;33181;49.246;7.372;2023-02-01T08:08:27;19.17;;;7.70;;
47429;SDS011;33181;49.246;7.372;2023-02-01T08:11:00;16.80;;;7.77;;
47429;SDS011;33181;49.246;7.372;2023-02-01T08:13:28;20.10;;;7.23;;
47429;SDS011;33181;49.246;7.372;2023-02-01T08:16:00;18.00;;;7.13;;
47429;SDS011;33181;49.246;7.372;2023-02-01T08:18:30;20.60;;;7.07;;
47429;SDS011;33181;49.246;7.372;2023-02-01T08:20:56;23.77;;;7.70;;
47429;SDS011;33181;49.246;7.372;2023-02-01T08:23:27;23.97;;;7.13;;
47429;SDS011;33181;49.246;7.372;2023-02-01T08:25:53;25.27;;;7.00;;
47429;SDS011;33181;49.246;7.372;2023-02-01T08:28:18;23.17;;;7.67;;
47429;SDS011;33181;49.246;7.372;2023-02-01T08:30:44;19.87;;;6.43;;
47429;SDS011;33181;49.246;7.372;2023-02-01T08:33:10;20.40;;;7.03;;
47429;SDS011;33181;49.246;7.372;2023-02-01T08:35:36;25.30;;;7.10;;
47429;SDS011;33181;49.246;7.372;2023-02-01T08:38:03;27.17;;;6.60;;
47429;SDS011;33181;49.246;7.372;2023-02-01T08:40:31;19.97;;;6.23;;
47429;SDS011;33181;49.246;7.372;2023-02-01T08:42:58;20.00;;;5.93;;
47429;SDS011;33181;49.246;7.372;2023-02-01T08:45:26;18.80;;;6.70;;
47429;SDS011;33181;49.246;7.372;2023-02-01T08:47:54;34.83;;;7.00;;
47429;SDS011;33181;49.246;7.372;2023-02-01T08:50:21;19.73;;;6.70;;
47429;SDS011;33181;49.246;7.372;2023-02-01T08:52:49;24.97;;;5.90;;
47429;SDS011;33181;49.246;7.372;2023-02-01T08:55:16;15.90;;;6.17;;
47429;SDS011;33181;49.246;7.372;2023-02-01T08:57:42;16.93;;;6.00;;
47429;SDS011;33181;49.246;7.372;2023-02-01T09:00:09;19.43;;;6.53;;
47429;SDS011;33181;49.246;7.372;2023-02-01T09:02:38;20.80;;;5.80;;
47429;SDS011;33181;49.246;7.372;2023-02-01T09:05:04;16.50;;;5.63;;
47429;SDS011;33181;49.246;7.372;2023-02-01T09:07:31;21.60;;;6.07;;
47429;SDS011;33181;49.246;7.372;2023-02-01T09:09:59;18.70;;;5.60;;
47429;SDS011;33181;49.246;7.372;2023-02-01T09:12:28;15.50;;;4.97;;
47429;SDS011;33181;49.246;7.372;2023-02-01T09:14:56;19.03;;;5.50;;
47429;SDS011;33181;49.246;7.372;2023-02-01T09:17:24;17.27;;;4.70;;
47429;SDS011;33181;49.246;7.372;2023-02-01T09:19:51;19.67;;;5.23;;
47429;SDS011;33181;49.246;7.372;2023-02-01T09:22:17;23.37;;;5.57;;
47429;SDS011;33181;49.246;7.372;2023-02-01T09:24:43;17.90;;;5.63;;
47429;SDS011;33181;49.246;7.372;2023-02-01T09:27:12;22.73;;;5.10;;
47429;SDS011;33181;49.246;7.372;2023-02-01T09:29:37;22.87;;;5.37;;
47429;SDS011;33181;49.246;7.372;2023-02-01T09:32:03;17.60;;;5.77;;
47429;SDS011;33181;49.246;7.372;2023-02-01T09:34:29;22.27;;;5.27;;
47429;SDS011;33181;49.246;7.372;2023-02-01T09:36:55;19.73;;;5.97;;
47429;SDS011;33181;49.246;7.372;2023-02-01T09:39:21;21.33;;;5.83;;
47429;SDS011;33181;49.246;7.372;2023-02-01T09:42:02;15.93;;;5.50;;
47429;SDS011;33181;49.246;7.372;2023-02-01T09:48:12;18.17;;;5.87;;
47429;SDS011;33181;49.246;7.372;2023-02-01T09:50:46;18.40;;;4.57;;
47429;SDS011;33181;49.246;7.372;2023-02-01T09:53:40;15.87;;;5.20;;
47429;SDS011;33181;49.246;7.372;2023-02-01T09:56:12;14.00;;;5.00;;
47429;SDS011;33181;49.246;7.372;2023-02-01T09:59:08;16.10;;;5.07;;
47429;SDS011;33181;49.246;7.372;2023-02-01T10:01:53;14.87;;;5.80;;
47429;SDS011;33181;49.246;7.372;2023-02-01T10:04:19;18.40;;;4.53;;
47429;SDS011;33181;49.246;7.372;2023-02-01T10:21:51;19.60;;;5.47;;
47429;SDS011;33181;49.246;7.372;2023-02-01T10:24:46;13.00;;;4.83;;
47429;SDS011;33181;49.246;7.372;2023-02-01T10:27:25;13.30;;;5.67;;
47429;SDS011;33181;49.246;7.372;2023-02-01T10:30:00;15.10;;;4.83;;
47429;SDS011;33181;49.246;7.372;2023-02-01T10:32:43;20.23;;;6.57;;
47429;SDS011;33181;49.246;7.372;2023-02-01T10:35:12;20.80;;;5.67;;
47429;SDS011;33181;49.246;7.372;2023-02-01T10:37:43;19.90;;;5.37;;
47429;SDS011;33181;49.246;7.372;2023-02-01T10:40:14;14.37;;;5.10;;
47429;SDS011;33181;49.246;7.372;2023-02-01T10:42:47;14.40;;;4.50;;
47429;SDS011;33181;49.246;7.372;2023-02-01T10:45:24;15.53;;;4.87;;
47429;SDS011;33181;49.246;7.372;2023-02-01T10:47:55;17.33;;;5.33;;
47429;SDS011;33181;49.246;7.372;2023-02-01T10:50:37;20.47;;;4.53;;
47429;SDS011;33181;49.246;7.372;2023-02-01T10:53:12;21.27;;;4.83;;
47429;SDS011;33181;49.246;7.372;2023-02-01T10:55:57;19.97;;;5.57;;
47429;SDS011;33181;49.246;7.372;2023-02-01T10:58:31;13.00;;;4.80;;
47429;SDS011;33181;49.246;7.372;2023-02-01T11:01:01;14.17;;;5.43;;
47429;SDS011;33181;49.246;7.372;2023-02-01T11:03:41;16.80;;;5.00;;
47429;SDS011;33181;49.246;7.372;2023-02-01T11:07:04;14.37;;;4.10;;
47429;SDS011;33181;49.246;7.372;2023-02-01T11:09:32;13.63;;;4.40;;
47429;SDS011;33181;49.246;7.372;2023-02-01T11:12:05;17.20;;;4.70;;
47429;SDS011;33181;49.246;7.372;2023-02-01T11:17:46;13.83;;;4.50;;
47429;SDS011;33181;49.246;7.372;2023-02-01T11:20:40;16.20;;;4.70;;
47429;SDS011;33181;49.246;7.372;2023-02-01T11:23:13;13.67;;;4.97;;
47429;SDS011;33181;49.246;7.372;2023-02-01T11:25:56;15.60;;;4.73;;
47429;SDS011;33181;49.246;7.372;2023-02-01T11:28:34;14.67;;;4.97;;
47429;SDS011;33181;49.246;7.372;2023-02-01T11:31:04;25.10;;;4.87;;
47429;SDS011;33181;49.246;7.372;2023-02-01T11:33:35;15.03;;;4.40;;
47429;SDS011;33181;49.246;7.372;2023-02-01T11:36:12;16.27;;;5.00;;
47429;SDS011;33181;49.246;7.372;2023-02-01T11:38:45;14.77;;;5.10;;
47429;SDS011;33181;49.246;7.372;2023-02-01T11:41:32;13.73;;;5.10;;
47429;SDS011;33181;49.246;7.372;2023-02-01T11:43:59;13.63;;;5.47;;
47429;SDS011;33181;49.246;7.372;2023-02-01T11:46:29;14.60;;;4.67;;
47429;SDS011;33181;49.246;7.372;2023-02-01T11:49:13;23.57;;;5.17;;
47429;SDS011;33181;49.246;7.372;2023-02-01T11:51:54;14.43;;;4.23;;
47429;SDS011;33181;49.246;7.372;2023-02-01T12:00:39;13.97;;;5.30;;
47429;SDS011;33181;49.246;7.372;2023-02-01T12:06:50;14.20;;;4.50;;
47429;SDS011;33181;49.246;7.372;2023-02-01T12:12:25;16.13;;;5.17;;
47429;SDS011;33181;49.246;7.372;2023-02-01T12:15:27;13.70;;;4.47;;
47429;SDS011;33181;49.246;7.372;2023-02-01T12:18:17;14.47;;;5.00;;
47429;SDS011;33181;49.246;7.372;2023-02-01T12:30:39;17.77;;;5.33;;
47429;SDS011;33181;49.246;7.372;2023-02-01T12:34:02;15.80;;;4.13;;
47429;SDS011;33181;49.246;7.372;2023-02-01T12:37:31;11.60;;;4.10;;
47429;SDS011;33181;49.246;7.372;2023-02-01T12:40:11;13.30;;;5.10;;
47429;SDS011;33181;49.246;7.372;2023-02-01T12:43:48;18.23;;;4.40;;
47429;SDS011;33181;49.246;7.372;2023-02-01T12:51:40;23.07;;;6.80;;
47429;SDS011;33181;49.246;7.372;2023-02-01T12:54:12;11.47;;;4.57;;
47429;SDS011;33181;49.246;7.372;2023-02-01T12:56:52;17.87;;;4.73;;
47429;SDS011;33181;49.246;7.372;2023-02-01T12:59:29;18.00;;;4.37;;
47429;SDS011;33181;49.246;7.372;2023-02-01T13:04:32;15.77;;;5.00;;
47429;SDS011;33181;49.246;7.372;2023-02-01T13:07:08;11.30;;;4.27;;
47429;SDS011;33181;49.246;7.372;2023-02-01T13:09:51;11.83;;;4.17;;
47429;SDS011;33181;49.246;7.372;2023-02-01T13:12:37;14.73;;;4.33;;
47429;SDS011;33181;49.246;7.372;2023-02-01T13:15:27;17.17;;;5.00;;
47429;SDS011;33181;49.246;7.372;2023-02-01T13:17:59;10.90;;;4.20;;
47429;SDS011;33181;49.246;7.372;2023-02-01T13:20:31;11.93;;;4.47;;
47429;SDS011;33181;49.246;7.372;2023-02-01T13:23:31;16.50;;;4.33;;
47429;SDS011;33181;49.246;7.372;2023-02-01T13:26:01;14.07;;;4.00;;
47429;SDS011;33181;49.246;7.372;2023-02-01T13:28:28;13.83;;;4.53;;
47429;SDS011;33181;49.246;7.372;2023-02-01T13:34:32;15.90;;;4.80;;
47429;SDS011;33181;49.246;7.372;2023-02-01T13:43:52;11.50;;;4.20;;
47429;SDS011;33181;49.246;7.372;2023-02-01T13:46:26;12.40;;;4.17;;
47429;SDS011;33181;49.246;7.372;2023-02-01T13:48:54;10.23;;;4.17;;
47429;SDS011;33181;49.246;7.372;2023-02-01T13:54:43;15.40;;;4.57;;
47429;SDS011;33181;49.246;7.372;2023-02-01T13:57:25;12.83;;;4.20;;
47429;SDS011;33181;49.246;7.372;2023-02-01T14:00:05;19.07;;;4.70;;
47429;SDS011;33181;49.246;7.372;2023-02-01T14:02:48;14.67;;;4.30;;
47429;SDS011;33181;49.246;7.372;2023-02-01T14:27:13;13.83;;;4.43;;
47429;SDS011;33181;49.246;7.372;2023-02-01T14:31:42;14.70;;;4.37;;
47429;SDS011;33181;49.246;7.372;2023-02-01T14:42:25;12.03;;;4.83;;
47429;SDS011;33181;49.246;7.372;2023-02-01T14:47:44;12.60;;;4.40;;
47429;SDS011;33181;49.246;7.372;2023-02-01T14:50:40;19.03;;;5.20;;
47429;SDS011;33181;49.246;7.372;2023-02-01T14:55:44;15.13;;;5.07;;
47429;SDS011;33181;49.246;7.372;2023-02-01T14:58:40;11.97;;;4.33;;
47429;SDS011;33181;49.246;7.372;2023-02-01T15:01:25;12.33;;;4.13;;
47429;SDS011;33181;49.246;7.372;2023-02-01T15:03:58;12.30;;;4.80;;
47429;SDS011;33181;49.246;7.372;2023-02-01T15:09:26;13.70;;;4.17;;
47429;SDS011;33181;49.246;7.372;2023-02-01T15:11:56;14.20;;;4.73;;
47429;SDS011;33181;49.246;7.372;2023-02-01T15:14:46;16.50;;;4.43;;
47429;SDS011;33181;49.246;7.372;2023-02-01T15:17:29;15.90;;;4.60;;
47429;SDS011;33181;49.246;7.372;2023-02-01T15:22:59;13.83;;;4.63;;
47429;SDS011;33181;49.246;7.372;2023-02-01T15:25:36;13.47;;;3.77;;
47429;SDS011;33181;49.246;7.372;2023-02-01T15:28:04;21.80;;;5.20;;
47429;SDS011;33181;49.246;7.372;2023-02-01T15:30:34;19.10;;;6.20;;
47429;SDS011;33181;49.246;7.372;2023-02-01T15:33:08;16.90;;;5.80;;
47429;SDS011;33181;49.246;7.372;2023-02-01T15:35:45;13.10;;;4.73;;
47429;SDS011;33181;49.246;7.372;2023-02-01T15:43:43;11.33;;;4.00;;
47429;SDS011;33181;49.246;7.372;2023-02-01T15:46:33;14.40;;;4.93;;
47429;SDS011;33181;49.246;7.372;2023-02-01T15:49:15;12.67;;;4.50;;
47429;SDS011;33181;49.246;7.372;2023-02-01T15:51:55;12.83;;;3.60;;
47429;SDS011;33181;49.246;7.372;2023-02-01T15:54:28;13.23;;;4.90;;
47429;SDS011;33181;49.246;7.372;2023-02-01T15:57:11;10.80;;;4.10;;
47429;SDS011;33181;49.246;7.372;2023-02-01T15:59:44;12.70;;;4.90;;
47429;SDS011;33181;49.246;7.372;2023-02-01T16:05:32;17.67;;;4.27;;
47429;SDS011;33181;49.246;7.372;2023-02-01T16:10:44;14.03;;;4.50;;
47429;SDS011;33181;49.246;7.372;2023-02-01T16:13:13;13.60;;;4.20;;
47429;SDS011;33181;49.246;7.372;2023-02-01T16:15:41;14.80;;;4.57;;
47429;SDS011;33181;49.246;7.372;2023-02-01T16:18:08;12.03;;;4.40;;
47429;SDS011;33181;49.246;7.372;2023-02-01T16:20:35;12.37;;;4.23;;
47429;SDS011;33181;49.246;7.372;2023-02-01T16:23:04;18.23;;;5.07;;
47429;SDS011;33181;49.246;7.372;2023-02-01T16:25:31;16.13;;;4.70;;
47429;SDS011;33181;49.246;7.372;2023-02-01T16:27:57;14.23;;;4.70;;
47429;SDS011;33181;49.246;7.372;2023-02-01T16:30:23;9.23;;;4.40;;
47429;SDS011;33181;49.246;7.372;2023-02-01T16:32:53;15.57;;;4.60;;
47429;SDS011;33181;49.246;7.372;2023-02-01T16:35:24;14.20;;;4.93;;
47429;SDS011;33181;49.246;7.372;2023-02-01T16:37:52;18.43;;;4.70;;
47429;SDS011;33181;49.246;7.372;2023-02-01T16:40:19;14.80;;;4.43;;
47429;SDS011;33181;49.246;7.372;2023-02-01T16:42:49;12.80;;;4.30;;
47429;SDS011;33181;49.246;7.372;2023-02-01T16:45:18;12.57;;;4.07;;
47429;SDS011;33181;49.246;7.372;2023-02-01T16:47:48;14.23;;;4.40;;
47429;SDS011;33181;49.246;7.372;2023-02-01T16:50:21;9.50;;;4.63;;
47429;SDS011;33181;49.246;7.372;2023-02-01T16:52:50;12.47;;;4.23;;
47429;SDS011;33181;49.246;7.372;2023-02-01T16:55:18;14.07;;;4.30;;
47429;SDS011;33181;49.246;7.372;2023-02-01T16:57:50;14.20;;;4.50;;
47429;SDS011;33181;49.246;7.372;2023-02-01T17:00:15;15.57;;;5.10;;
47429;SDS011;33181;49.246;7.372;2023-02-01T17:02:42;15.67;;;4.40;;
47429;SDS011;33181;49.246;7.372;2023-02-01T17:05:08;10.83;;;4.67;;
47429;SDS011;33181;49.246;7.372;2023-02-01T17:07:35;22.17;;;5.67;;
47429;SDS011;33181;49.246;7.372;2023-02-01T17:10:03;16.17;;;5.10;;
47429;SDS011;33181;49.246;7.372;2023-02-01T17:12:31;13.60;;;4.30;;
47429;SDS011;33181;49.246;7.372;2023-02-01T17:14:58;15.40;;;4.50;;
47429;SDS011;33181;49.246;7.372;2023-02-01T17:17:25;14.63;;;5.70;;
47429;SDS011;33181;49.246;7.372;2023-02-01T17:20:03;20.30;;;5.50;;
47429;SDS011;33181;49.246;7.372;2023-02-01T17:22:30;13.90;;;4.83;;
47429;SDS011;33181;49.246;7.372;2023-02-01T17:24:56;18.13;;;4.90;;
47429;SDS011;33181;49.246;7.372;2023-02-01T17:27:22;12.60;;;5.20;;
47429;SDS011;33181;49.246;7.372;2023-02-01T17:29:48;13.87;;;4.57;;
47429;SDS011;33181;49.246;7.372;2023-02-01T17:32:15;15.63;;;5.30;;
47429;SDS011;33181;49.246;7.372;2023-02-01T17:34:45;14.47;;;5.00;;
47429;SDS011;33181;49.246;7.372;2023-02-01T17:37:18;20.70;;;5.43;;
47429;SDS011;33181;49.246;7.372;2023-02-01T17:39:51;16.00;;;5.40;;